ニアメ の空港の天気 - METARとTAF

ニアメ/ディオリ・アマニ国際空港 ( DRRN / NIM ) - ニジェール ニアメ
飛行場実況気象(Metar)
観測時間10/19 18:00 WAT (10/19 17:00 UTC)
風向・風速北北西 7m/s
視程4000m
天気現象風塵 周辺でしゅう雨
全天の4割程度の雲 雲底高度 910m
少しの雲 雲底高度 1220m
気温31℃
湿度43%
気圧1008hPa
METARDRRN 191700Z 34013KT 4000 DU VCSH SCT030 FEW040CB 31/17 Q1008 TEMPO 2000 TSRA
過去の天気等 Google飛行場航空写真 Wunderground天気予報

過去48時間のMETAR

飛行場予報(TAF)
発表時間: 10/19 18:00 WAT (10/19 17:00 UTC)
予報対象時間: 19日19時 WAT ~ 21日1時 WAT
風向・風速不定 8m/s
視程8000m
天気現象
全天の4割程度の積乱雲 雲底高度 850m
19日19時 WAT ~ 19日21時 WAT に一時的に
視程4000m
天気現象
19日23時 WAT から
風向・風速南西 4m/s
視程10km以上
なし
TAF DRRN 191700Z 1918/2024 VRB15KT 8000 TS SCT028CB
TEMPO 1918/1920 4000 RA
FM192200 22008KT CAVOK